Latest Weather Observations for Bombala AWS

IDN60801

Issued at 2:32 pm EST Thursday 21 September 2017 (issued every 30 minutes, with the page automatically refreshed every 10 minutes)

About weather observations | Map of weather stations | Latest weather observations for NSW | Other Formats
Station Details ID: 070328 Name: BOMBALA AWS Lat: -37.00 Lon: 149.23 Height: 760.5 m
Data from the previous 72 hours. | See also: Recent months at Bombala AWS
Date/Time
EST
Temp
°C
App
Temp
°C
Dew
Point
°C
Rel
Hum
%
Delta-T
°C
Wind Press
QNH
hPa
Press
MSL
hPa
Rain since
9am
mm
Dir  Spd
km/h
Gust
km/h
Spd
kts
Gust
kts
21/02:30pm 18.8 12.8 -3.3 22 9.4 NW 19 22 10 12 1012.2 1012.1 0.0
21/02:00pm 19.0 13.7 -3.2 22 9.5 W 15 19 8 10 1012.6 1012.4 0.0
21/01:30pm 19.3 14.3 -4.2 20 9.9 WNW 13 19 7 10 1012.7 1012.6 0.0
21/01:00pm 19.6 15.5 -3.3 21 9.8 NW 9 13 5 7 1012.9 1012.8 0.0
21/12:30pm 19.7 17.4 -2.6 22 9.7 CALM 0 0 0 0 1013.5 1013.4 0.0
21/12:00pm 18.6 15.1 -2.9 23 9.2 NW 6 9 3 5 1014.0 1013.9 0.0
21/11:30am 17.7 13.8 -1.5 27 8.4 N 9 13 5 7 1014.2 1014.1 0.0
21/11:00am 16.6 13.5 1.5 36 7.0 NNW 7 11 4 6 1014.7 1014.6 0.0
21/10:30am 14.9 11.5 2.1 42 5.9 NW 9 11 5 6 1015.2 1015.2 0.0
21/10:00am 13.3 10.6 3.9 53 4.4 NNW 7 13 4 7 1015.4 1015.3 0.0
21/09:30am 11.2 8.1 3.5 59 3.6 NNW 9 11 5 6 1015.6 1015.5 0.0
21/09:00am 9.0 6.3 3.8 70 2.4 NNW 7 9 4 5 1015.8 1015.7 0.0
21/08:30am 6.4 3.7 3.7 83 1.2 NNW 7 9 4 5 1016.0 1015.9 0.0
21/08:00am 3.4 0.7 2.4 93 0.4 N 6 7 3 4 1016.2 1016.2 0.0
21/07:30am 1.8 -0.1 0.8 93 0.4 CALM 0 0 0 0 1016.2 1016.2 0.0
21/07:00am 0.6 -2.1 0.2 97 0.2 WNW 4 6 2 3 1016.2 1016.2 0.0
21/06:30am 0.0 -2.8 -0.3 98 0.1 NNW 4 6 2 3 1016.0 1015.9 0.0
21/06:00am 0.0 -3.2 -0.3 98 0.1 NNW 6 6 3 3 1016.2 1016.2 0.0
21/05:30am 0.3 -1.7 0.0 98 0.1 CALM 0 4 0 2 1015.9 1015.8 0.0
21/05:00am 0.4 -2.7 0.0 97 0.2 N 6 7 3 4 1015.7 1015.6 0.0
21/04:30am 1.3 -1.7 0.7 96 0.2 NW 6 6 3 3 1015.5 1015.4 0.0
21/04:00am 1.6 -1.0 0.9 95 0.3 NW 4 4 2 2 1015.5 1015.4 0.0
21/03:30am 1.5 -1.1 1.1 97 0.2 NNW 4 6 2 3 1015.6 1015.5 0.0
21/03:00am 0.7 -2.4 0.3 97 0.2 NW 6 7 3 4 1015.4 1015.3 0.0
21/02:30am 1.6 -0.6 1.0 96 0.2 NW 2 4 1 2 1015.8 1015.7 0.0
21/02:00am 1.4 -1.3 0.5 94 0.4 NW 4 6 2 3 1016.0 1015.9 0.0
21/01:30am 1.9 -1.1 0.9 93 0.4 NW 6 6 3 3 1016.3 1016.3 0.0
21/01:00am 2.5 -0.4 1.5 93 0.4 NW 6 7 3 4 1016.5 1016.5 0.0
21/12:30am 2.8 -0.1 1.5 91 0.5 NW 6 6 3 3 1016.8 1016.7 0.0
21/12:00am 3.1 0.2 1.6 90 0.6 NW 6 7 3 4 1017.0 1016.9 0.0
 
Date/Time
EST
Temp
°C
App
Temp
°C
Dew
Point
°C
Rel
Hum
%
Delta-T
°C
Wind Press
QNH
hPa
Press
MSL
hPa
Rain since
9am
mm
Dir  Spd
km/h
Gust
km/h
Spd
kts
Gust
kts
20/11:30pm 3.3 0.3 1.7 89 0.7 NNW 7 7 4 4 1017.1 1017.0 0.0
20/11:00pm 3.8 1.7 1.5 85 0.9 NNW 2 4 1 2 1017.3 1017.3 0.0
20/10:30pm 4.3 1.9 2.0 85 1.0 NNW 4 6 2 3 1017.3 1017.3 0.0
20/10:00pm 4.5 1.5 2.0 84 1.0 NNW 7 9 4 5 1017.4 1017.4 0.0
20/09:30pm 4.9 2.0 2.6 85 1.0 NW 7 9 4 5 1017.5 1017.5 0.0
20/09:00pm 4.7 2.0 2.4 85 1.0 WNW 6 7 3 4 1017.5 1017.5 0.0
20/08:30pm 4.8 2.7 1.8 81 1.3 N 2 6 1 3 1017.5 1017.5 0.0
20/08:00pm 6.2 3.5 2.8 79 1.5 ENE 6 9 3 5 1017.6 1017.6 0.0
20/07:30pm 7.1 3.5 3.0 75 1.8 ENE 11 15 6 8 1017.5 1017.5 0.0
20/07:00pm 7.7 4.9 3.0 72 2.1 E 7 11 4 6 1017.4 1017.4 0.0
20/06:30pm 8.8 6.1 2.8 66 2.7 E 6 9 3 5 1017.2 1017.2 0.0
20/06:00pm 10.0 6.4 3.1 62 3.1 ESE 11 13 6 7 1016.9 1016.8 0.0
20/05:30pm 11.5 8.0 3.3 57 3.8 E 11 15 6 8 1016.5 1016.5 0.0
20/05:00pm 13.8 10.6 3.0 48 5.0 S 9 13 5 7 1016.4 1016.4 0.0
20/04:30pm 14.9 10.0 -3.4 28 7.5 SSW 13 22 7 12 1016.2 1016.2 0.0
20/04:00pm 15.0 11.8 3.2 45 5.6 SE 9 13 5 7 1016.2 1016.2 0.0
20/03:30pm 16.4 9.8 -3.1 26 8.2 SW 22 28 12 15 1016.2 1016.2 0.0
20/03:00pm 16.6 10.7 -2.0 28 8.0 WSW 19 26 10 14 1016.3 1016.3 0.0
20/02:30pm 16.5 10.6 -2.5 27 8.1 SW 19 26 10 14 1016.4 1016.4 0.0
20/02:00pm 16.4 10.5 -2.1 28 7.9 WSW 19 26 10 14 1016.4 1016.4 0.0
20/01:30pm 15.5 10.9 -1.1 32 7.2 W 13 19 7 10 1016.9 1016.8 0.0
20/01:00pm 14.8 10.6 -0.9 34 6.8 SW 11 17 6 9 1017.1 1017.0 0.0
20/12:30pm 13.3 10.1 -0.3 39 5.9 SW 6 13 3 7 1017.5 1017.5 0.0
20/12:00pm 13.7 8.9 0.4 40 5.8 W 15 22 8 12 1018.0 1018.0 0.0
20/11:30am 12.3 8.0 0.7 45 5.1 WNW 13 20 7 11 1018.7 1018.7 0.0
20/11:00am 11.2 6.5 1.2 50 4.4 W 15 22 8 12 1018.9 1018.9 0.0
20/10:30am 9.9 4.9 1.5 56 3.7 WNW 17 22 9 12 1019.2 1019.2 0.0
20/10:00am 8.2 3.9 1.1 61 3.0 WNW 13 22 7 12 1019.8 1019.8 0.0
20/09:30am 6.7 2.4 0.8 66 2.5 W 13 17 7 9 1020.5 1020.5 0.0
20/09:00am 7.0 3.2 1.7 69 2.3 W 11 19 6 10 1020.6 1020.7 0.0
20/08:30am 5.7 1.8 1.1 72 1.9 WNW 11 15 6 8 1020.7 1020.8 0.0
20/08:00am 4.5 0.6 1.0 78 1.4 WNW 11 17 6 9 1020.7 1020.8 0.0
20/07:30am 3.9 0.8 1.1 82 1.1 NNW 7 11 4 6 1020.6 1020.7 0.0
20/07:00am 2.9 -0.3 0.5 84 0.9 WNW 7 11 4 6 1020.5 1020.5 0.0
20/06:30am 2.9 -1.6 0.0 81 1.1 WNW 13 20 7 11 1020.3 1020.3 0.0
20/06:00am 3.1 -1.4 0.0 80 1.2 W 13 19 7 10 1019.8 1019.8 0.0
20/05:30am 3.4 -1.1 -0.1 78 1.4 WSW 13 24 7 13 1019.4 1019.5 0.0
20/05:00am 3.9 -0.9 0.1 76 1.5 WSW 15 20 8 11 1019.2 1019.2 0.0
20/04:30am 4.2 -1.9 0.2 75 1.6 WSW 22 35 12 19 1019.2 1019.2 0.0
20/04:00am 4.2 -1.3 0.4 76 1.5 W 19 24 10 13 1019.4 1019.5 0.0
20/03:30am 4.0 -1.2 0.3 77 1.5 WSW 17 28 9 15 1019.6 1019.6 0.0
20/03:00am 4.5 -0.2 0.6 76 1.6 WSW 15 24 8 13 1019.8 1019.8 0.0
20/02:30am 4.3 0.3 0.6 77 1.5 WSW 11 17 6 9 1019.7 1019.7 0.0
20/02:00am 4.4 0.1 0.7 77 1.5 WSW 13 22 7 12 1019.8 1019.8 0.0
20/01:30am 4.5 0.1 0.6 76 1.6 WSW 13 19 7 10 1019.9 1019.9 0.0
20/01:00am 4.6 -0.9 0.7 76 1.6 WSW 19 28 10 15 1020.1 1020.1 0.0
20/12:30am 4.6 -1.0 0.9 77 1.5 WSW 20 28 11 15 1019.9 1019.9 0.0
20/12:00am 4.8 -0.9 0.8 75 1.6 WSW 20 30 11 16 1019.8 1019.8 0.0
 
Date/Time
EST
Temp
°C
App
Temp
°C
Dew
Point
°C
Rel
Hum
%
Delta-T
°C
Wind Press
QNH
hPa
Press
MSL
hPa
Rain since
9am
mm
Dir  Spd
km/h
Gust
km/h
Spd
kts
Gust
kts
19/11:30pm 5.0 -1.0 0.9 75 1.7 WSW 22 30 12 16 1019.8 1019.8 0.0
19/11:00pm 5.0 -1.8 0.8 74 1.7 WSW 26 43 14 23 1019.7 1019.7 0.0
19/10:30pm 4.9 -0.7 0.9 75 1.6 WSW 20 32 11 17 1019.8 1019.8 0.0
19/10:00pm 4.6 -1.5 0.7 76 1.6 WSW 22 28 12 15 1019.9 1019.9 0.0
19/09:30pm 4.3 -0.1 0.5 76 1.5 W 13 20 7 11 1019.8 1019.8 0.0
19/09:00pm 4.3 0.7 0.3 75 1.6 WSW 9 13 5 7 1019.8 1019.8 0.0
19/08:30pm 4.5 -0.7 0.3 74 1.7 SW 17 24 9 13 1019.4 1019.5 0.0
19/08:00pm 5.0 -2.2 0.6 73 1.8 SW 28 39 15 21 1018.8 1018.8 0.0
19/07:30pm 5.1 0.0 1.0 75 1.7 SW 17 24 9 13 1018.7 1018.7 0.0
19/07:00pm 5.6 -0.1 0.8 71 2.0 SW 20 26 11 14 1018.0 1018.0 0.0
19/06:30pm 6.2 0.6 0.9 69 2.2 SW 20 28 11 15 1017.6 1017.6 0.0
19/06:00pm 6.7 0.3 0.8 66 2.4 SW 24 33 13 18 1017.3 1017.3 0.0
19/05:30pm 7.7 0.2 1.1 63 2.8 SW 30 41 16 22 1016.6 1016.6 0.0
19/05:00pm 8.5 0.0 1.0 59 3.2 SW 35 46 19 25 1016.0 1015.9 0.0
19/04:30pm 9.8 2.0 1.5 56 3.6 SW 32 43 17 23 1015.5 1015.4 0.0
19/04:00pm 10.7 3.7 1.8 54 3.9 SW 28 37 15 20 1014.9 1014.9 0.0
19/03:30pm 10.9 2.5 1.7 53 4.1 SW 35 48 19 26 1014.6 1014.5 0.0
19/03:00pm 10.7 2.9 1.8 54 3.9 SW 32 43 17 23 1014.5 1014.4 0.0
19/02:30pm 10.4 2.4 0.4 50 4.3 WSW 32 43 17 23 1014.3 1014.2 0.0
19/02:00pm 10.7 2.7 1.8 54 3.9 SW 33 44 18 24 1014.3 1014.2 0.0
19/01:30pm 10.3 2.5 1.9 56 3.7 SW 32 43 17 23 1014.3 1014.2 0.0
19/01:00pm 10.1 2.1 1.5 55 3.8 SW 33 43 18 23 1014.1 1014.0 0.0
19/12:30pm 10.5 3.2 2.4 57 3.6 SW 30 54 16 29 1013.6 1013.5 0.0
19/12:00pm 10.1 1.4 2.0 57 3.6 SW 37 48 20 26 1013.7 1013.6 0.0
19/11:30am 10.2 2.5 2.3 58 3.5 WSW 32 44 17 24 1013.7 1013.6 0.0
19/11:00am 9.9 2.9 4.3 68 2.6 SW 30 39 16 21 1014.1 1014.0 0.0
19/10:30am 7.6 0.0 3.8 77 1.7 SW 33 50 18 27 1014.1 1014.0 0.0
19/10:00am 7.8 -1.2 2.7 70 2.2 WSW 39 54 21 29 1014.2 1014.1 0.0
19/09:59am 8.0 -1.0 2.5 68 2.4 WSW 39 54 21 29 1014.2 1014.1 0.0
19/09:34am 8.5 -1.4 1.6 62 3.0 W 43 61 23 33 1013.2 1013.1 0.0
19/09:30am 9.6 0.1 1.8 58 3.4 WSW 41 52 22 28 1013.4 1013.3 0.0
19/09:11am 9.3 2.3 2.2 61 3.1 W 28 50 15 27 1013.1 1013.0 0.0
19/09:00am 8.4 2.0 3.1 69 2.4 W 26 33 14 18 1013.3 1013.2 0.2
19/08:30am 8.2 2.2 3.3 71 2.2 W 24 32 13 17 1013.3 1013.2 0.2
19/08:00am 8.5 2.4 2.5 66 2.6 W 24 32 13 17 1013.0 1012.9 0.2
19/07:30am 7.7 2.5 2.6 70 2.2 WNW 19 24 10 13 1012.7 1012.6 0.2
19/07:00am 7.1 0.6 2.4 72 2.0 WNW 26 33 14 18 1012.3 1012.2 0.2
19/06:30am 6.6 -0.3 2.3 74 1.9 WNW 28 39 15 21 1011.8 1011.7 0.2
19/06:00am 7.4 1.3 2.7 72 2.1 NW 24 33 13 18 1011.8 1011.7 0.2
19/05:30am 7.8 3.0 2.7 70 2.2 NW 17 28 9 15 1010.7 1010.6 0.2
19/05:23am 7.9 3.1 2.8 70 2.2 NW 17 28 9 15 1010.3 1010.1 0.2
19/05:08am 7.9 -0.6 3.4 73 2.0 W 37 57 20 31 1011.8 1011.7 0.2
19/05:00am 8.3 -2.3 3.2 70 2.3 W 48 59 26 32 1011.8 1011.7 0.2
19/04:30am 8.4 0.9 3.3 70 2.3 W 32 59 17 32 1010.9 1010.8 0.0
19/04:29am 8.8 1.6 3.0 67 2.6 W 30 57 16 31 1010.9 1010.8 0.0
19/04:28am 9.0 2.1 2.3 63 3.0 W 28 43 15 23 1011.2 1011.0 0.0
19/04:00am 6.1 3.2 -1.1 60 2.8 SW 4 6 2 3 1010.4 1010.3 0.0
19/03:30am 5.8 2.3 -2.5 55 3.2 NNW 6 9 3 5 1010.2 1010.0 0.0
19/03:00am 5.2 1.0 -3.8 52 3.3 SW 9 13 5 7 1010.1 1009.9 0.0
19/02:30am 8.5 4.9 -3.7 42 4.6 SW 6 11 3 6 1010.5 1010.4 0.0
19/02:00am 7.8 4.2 -3.7 44 4.3 S 6 11 3 6 1010.5 1010.4 0.0
19/01:30am 9.3 4.3 -4.3 38 5.1 NW 13 15 7 8 1010.4 1010.3 0.0
19/01:00am 8.2 3.3 -3.6 43 4.5 NW 13 19 7 10 1010.5 1010.4 0.0
19/12:30am 10.5 6.3 -4.3 35 5.7 NNW 9 17 5 9 1010.6 1010.5 0.0
19/12:00am 11.2 8.6 -4.5 33 6.1 CALM 0 2 0 1 1010.7 1010.6 0.0
 
Date/Time
EST
Temp
°C
App
Temp
°C
Dew
Point
°C
Rel
Hum
%
Delta-T
°C
Wind Press
QNH
hPa
Press
MSL
hPa
Rain since
9am
mm
Dir  Spd
km/h
Gust
km/h
Spd
kts
Gust
kts
18/11:30pm 10.5 5.9 -4.3 35 5.7 NNW 11 17 6 9 1011.0 1010.9 0.0
18/11:00pm 11.7 5.6 -3.6 34 6.1 N 19 30 10 16 1011.4 1011.2 0.0
18/10:30pm 9.1 5.5 -2.2 45 4.5 NW 7 11 4 6 1012.3 1012.2 0.0
18/10:00pm 9.9 6.2 -3.0 40 5.1 NW 7 11 4 6 1013.0 1012.9 0.0
18/09:30pm 10.5 6.0 -3.2 38 5.4 N 11 15 6 8 1013.8 1013.8 0.0
18/09:00pm 10.8 6.7 -3.3 37 5.6 N 9 11 5 6 1014.6 1014.5 0.0
18/08:30pm 10.7 5.8 -3.7 36 5.6 N 13 20 7 11 1015.0 1015.0 0.0
18/08:00pm 12.2 5.5 -4.4 31 6.5 N 22 28 12 15 1015.1 1015.1 0.0
18/07:30pm 12.5 5.5 -7.5 24 7.3 N 22 28 12 15 1014.9 1014.9 0.0
18/07:00pm 12.0 5.9 -7.9 24 7.2 NNW 17 24 9 13 1014.4 1014.3 0.0
18/06:30pm 11.9 6.3 -6.5 27 6.8 NNW 15 17 8 9 1014.0 1013.9 0.0
18/06:00pm 12.4 7.2 -6.0 27 6.9 NNW 13 15 7 8 1013.8 1013.8 0.0
18/05:30pm 14.5 8.5 -6.9 22 8.1 NNW 17 20 9 11 1013.8 1013.8 0.0
18/05:00pm 15.6 9.1 -7.9 19 8.8 NNW 19 26 10 14 1014.0 1013.9 0.0
18/04:30pm 16.8 8.4 -9.9 15 9.7 NNW 28 37 15 20 1014.1 1014.0 0.0
18/04:00pm 17.4 8.1 -10.3 14 10.1 NW 33 41 18 22 1014.1 1014.0 0.0
18/03:30pm 17.9 6.4 -10.9 13 10.4 NW 44 56 24 30 1013.8 1013.8 0.0
18/03:00pm 19.6 9.9 -10.5 12 11.2 NW 35 46 19 25 1014.0 1013.9 0.0

Other Formats:

Comma delimited format used in spreadsheet applications
http://www.bom.gov.au/fwo/IDN60801/IDN60801.94929.axf

JavaScript Object Notation format (JSON) in row-major order
http://www.bom.gov.au/fwo/IDN60801/IDN60801.94929.json